Alpine Persefone — A8MS7 — position and weather

sailwx.info

Track history (hours):
 
Tides and Currents Weather Stations Pressure Air Temp Water Temp Dewpoint Dewpoint Depression Visibility Wind Speed Wind Dir Waves Ship Positions

Alpine Persefone

Last reported at 2015-Jan-16 05:33 UTC. Time now 2015-Mar-06 02:50 UTC.
Position N 36°26' E 014°41'.
Warning: this ship's position is 48 days out of date.

Length 226 m; draft 13.6 m.

Type: Tanker. MMSI: 636013411.

Date/timePositionNaut miles runAvg speedWind from/ knotsBaromVisibWave heightAir tempDewpointWater temp
2015-Jan-16 05:33N 36°26' E 014°41'1312.5
2015-Jan-16 04:32N 36°29' E 014°25'1212.1
2015-Jan-16 03:33N 36°32' E 014°11'1212.2
2015-Jan-16 02:33N 36°35' E 013°56'1212.4
2015-Jan-16 01:33N 36°38' E 013°42'1212.4
2015-Jan-16 00:33N 36°42' E 013°27'1212.1
2015-Jan-15 23:33N 36°45' E 013°12'1312.2
2015-Jan-15 22:32N 36°49' E 012°57'1212.4
2015-Jan-15 21:31N 36°51' E 012°42'2412.4
2015-Jan-15 19:33N 36°57' E 012°12'6311.9
2015-Jan-15 14:15N 37°27' E 011°02'1311.7
2015-Jan-15 13:05N 37°29' E 010°46'6911.9
2015-Jan-15 07:17N 37°23' E 009°19'24212.2
2015-Jan-14 11:21N 37°18' E 004°14'1012.9
2015-Jan-14 10:33N 37°18' E 004°01'1413.0
2015-Jan-14 09:29N 37°18' E 003°44'1712.8
2015-Jan-14 08:10N 37°18' E 003°22'812.3
2015-Jan-14 07:33N 37°18' E 003°13'2512.6
2015-Jan-14 05:33N 37°18' E 002°42'1412.7
2015-Jan-14 04:25N 37°17' E 002°24'1112.5
2015-Jan-14 03:33N 37°14' E 002°10'1212.5
2015-Jan-14 02:33N 37°11' E 001°55'1312.7
2015-Jan-14 01:33N 37°07' E 001°40'2812.3
2015-Jan-13 23:14N 37°01' E 001°05'2612.3
2015-Jan-13 21:06N 36°55' E 000°33'812.4
2015-Jan-13 20:29N 36°53' E 000°24'1213.1
2015-Jan-13 19:33N 36°50' E 000°09'1312.6
2015-Jan-13 18:31N 36°47' W 000°07'1212.1
2015-Jan-13 17:33N 36°44' W 000°21'1212.1
2015-Jan-13 16:32N 36°41' W 000°36'22511.8
2015-Jan-12 21:31N 36°01' W 005°10'1111.3
2015-Jan-12 20:33N 36°04' W 005°23'2 1.7
2015-Jan-12 19:33N 36°05' W 005°24'0 0.0
2015-Jan-12 18:33N 36°05' W 005°24'0 0.0
2015-Jan-12 17:33N 36°05' W 005°24'0 0.0
2015-Jan-12 16:06N 36°05' W 005°24'0 0.0
2015-Jan-12 15:30N 36°05' W 005°24'0 0.0
2015-Jan-12 14:33N 36°05' W 005°24'0 0.1
2015-Jan-12 13:33N 36°05' W 005°24'0 0.1
2015-Jan-12 12:33N 36°05' W 005°24'0 0.2
2015-Jan-12 11:30N 36°05' W 005°24'4 3.7
2015-Jan-12 10:33N 36°04' W 005°20'2 1.7
2015-Jan-12 09:33N 36°04' W 005°18'0 0.2
2015-Jan-12 08:33N 36°04' W 005°17'0 0.4
2015-Jan-12 07:33N 36°04' W 005°17'1 0.8
2015-Jan-12 06:33N 36°05' W 005°18'2 1.6
2015-Jan-12 05:33N 36°05' W 005°20'1 1.1
2015-Jan-12 04:18N 36°06' W 005°18'1 0.7
2015-Jan-12 03:29N 36°06' W 005°18'5 5.7
2015-Jan-12 02:33N 36°01' W 005°19'14112.4
2015-Jan-11 15:09N 36°17' W 008°12'2112.0
2015-Jan-11 13:23N 36°22' W 008°38'1412.0
2015-Jan-11 12:14N 36°25' W 008°55'811.8
2015-Jan-11 11:33N 36°27' W 009°05'1311.8
2015-Jan-11 10:29N 36°30' W 009°20'1212.0
2015-Jan-11 09:31N 36°39' W 009°29'1611.7
2015-Jan-11 08:08N 36°53' W 009°39'712.1
2015-Jan-11 07:33N 36°60' W 009°41'1212.0
2015-Jan-11 06:32N 37°11' W 009°45'1212.1
2015-Jan-11 05:33N 37°23' W 009°48'1212.2
2015-Jan-11 04:33N 37°35' W 009°51'1212.2
2015-Jan-11 03:33N 37°47' W 009°55'1212.3
2015-Jan-11 02:33N 37°59' W 009°59'1212.3
2015-Jan-11 01:33N 38°11' W 010°02'1212.1
2015-Jan-11 00:33N 38°23' W 010°05'1212.3
2015-Jan-10 23:33N 38°34' W 010°09'1212.3
2015-Jan-10 22:33N 38°47' W 010°11'1212.4
2015-Jan-10 21:33N 38°59' W 010°11'1212.1
2015-Jan-10 20:33N 39°11' W 010°11'  
2015-Jan-07 12:07N 50°22' W 000°49'17 8.5
2015-Jan-07 10:09N 50°26' W 000°24'16 8.6
2015-Jan-07 08:18N 50°30' E 000°00'810.3
2015-Jan-07 07:33N 50°32' E 000°12'1211.7
2015-Jan-07 06:33N 50°36' E 000°30'1212.3
2015-Jan-07 05:34N 50°42' E 000°46'1212.2
2015-Jan-07 04:33N 50°50' E 001°01'1111.3
2015-Jan-07 03:33N 50°57' E 001°15'10 9.9
2015-Jan-07 02:34N 51°04' E 001°26'9 8.9
2015-Jan-07 01:34N 51°09' E 001°37'9 9.1
2015-Jan-07 00:33N 51°16' E 001°48'1110.7
2015-Jan-06 23:34N 51°25' E 001°56'1212.1
2015-Jan-06 22:34N 51°34' E 002°10'1413.1
2015-Jan-06 21:30N 51°44' E 002°25'5511.2
2015-Jan-06 16:33N 52°35' E 002°59'5310.0
2015-Jan-06 11:15N 53°25' E 003°31'2810.3
2015-Jan-06 08:33N 53°49' E 003°53'  
Track history (hours):
 
Tides and Currents Weather Stations Pressure Air Temp Water Temp Dewpoint Dewpoint Depression Visibility Wind Speed Wind Dir Waves Ship Positions

Alpine Persefone

Last reported at 2015-Jan-16 05:33 UTC. Time now 2015-Mar-06 02:50 UTC.
Position N 36°26' E 014°41'.
Warning: this ship's position is 48 days out of date.

Length 226 m; draft 13.6 m.

Type: Tanker. MMSI: 636013411.

Date/timePositionNaut miles runAvg speedWind from/ knotsBaromVisibWave heightAir tempDewpointWater temp
2015-Jan-16 05:33N 36°26' E 014°41'1312.5
2015-Jan-16 04:32N 36°29' E 014°25'1212.1
2015-Jan-16 03:33N 36°32' E 014°11'1212.2
2015-Jan-16 02:33N 36°35' E 013°56'1212.4
2015-Jan-16 01:33N 36°38' E 013°42'1212.4
2015-Jan-16 00:33N 36°42' E 013°27'1212.1
2015-Jan-15 23:33N 36°45' E 013°12'1312.2
2015-Jan-15 22:32N 36°49' E 012°57'1212.4
2015-Jan-15 21:31N 36°51' E 012°42'2412.4
2015-Jan-15 19:33N 36°57' E 012°12'6311.9
2015-Jan-15 14:15N 37°27' E 011°02'1311.7
2015-Jan-15 13:05N 37°29' E 010°46'6911.9
2015-Jan-15 07:17N 37°23' E 009°19'24212.2
2015-Jan-14 11:21N 37°18' E 004°14'1012.9
2015-Jan-14 10:33N 37°18' E 004°01'1413.0
2015-Jan-14 09:29N 37°18' E 003°44'1712.8
2015-Jan-14 08:10N 37°18' E 003°22'812.3
2015-Jan-14 07:33N 37°18' E 003°13'2512.6
2015-Jan-14 05:33N 37°18' E 002°42'1412.7
2015-Jan-14 04:25N 37°17' E 002°24'1112.5
2015-Jan-14 03:33N 37°14' E 002°10'1212.5
2015-Jan-14 02:33N 37°11' E 001°55'1312.7
2015-Jan-14 01:33N 37°07' E 001°40'2812.3
2015-Jan-13 23:14N 37°01' E 001°05'2612.3
2015-Jan-13 21:06N 36°55' E 000°33'812.4
2015-Jan-13 20:29N 36°53' E 000°24'1213.1
2015-Jan-13 19:33N 36°50' E 000°09'1312.6
2015-Jan-13 18:31N 36°47' W 000°07'1212.1
2015-Jan-13 17:33N 36°44' W 000°21'1212.1
2015-Jan-13 16:32N 36°41' W 000°36'22511.8
2015-Jan-12 21:31N 36°01' W 005°10'1111.3
2015-Jan-12 20:33N 36°04' W 005°23'2 1.7
2015-Jan-12 19:33N 36°05' W 005°24'0 0.0
2015-Jan-12 18:33N 36°05' W 005°24'0 0.0
2015-Jan-12 17:33N 36°05' W 005°24'0 0.0
2015-Jan-12 16:06N 36°05' W 005°24'0 0.0
2015-Jan-12 15:30N 36°05' W 005°24'0 0.0
2015-Jan-12 14:33N 36°05' W 005°24'0 0.1
2015-Jan-12 13:33N 36°05' W 005°24'0 0.1
2015-Jan-12 12:33N 36°05' W 005°24'0 0.2
2015-Jan-12 11:30N 36°05' W 005°24'4 3.7
2015-Jan-12 10:33N 36°04' W 005°20'2 1.7
2015-Jan-12 09:33N 36°04' W 005°18'0 0.2
2015-Jan-12 08:33N 36°04' W 005°17'0 0.4
2015-Jan-12 07:33N 36°04' W 005°17'1 0.8
2015-Jan-12 06:33N 36°05' W 005°18'2 1.6
2015-Jan-12 05:33N 36°05' W 005°20'1 1.1
2015-Jan-12 04:18N 36°06' W 005°18'1 0.7
2015-Jan-12 03:29N 36°06' W 005°18'5 5.7
2015-Jan-12 02:33N 36°01' W 005°19'14112.4
2015-Jan-11 15:09N 36°17' W 008°12'2112.0
2015-Jan-11 13:23N 36°22' W 008°38'1412.0
2015-Jan-11 12:14N 36°25' W 008°55'811.8
2015-Jan-11 11:33N 36°27' W 009°05'1311.8
2015-Jan-11 10:29N 36°30' W 009°20'1212.0
2015-Jan-11 09:31N 36°39' W 009°29'1611.7
2015-Jan-11 08:08N 36°53' W 009°39'712.1
2015-Jan-11 07:33N 36°60' W 009°41'1212.0
2015-Jan-11 06:32N 37°11' W 009°45'1212.1
2015-Jan-11 05:33N 37°23' W 009°48'1212.2
2015-Jan-11 04:33N 37°35' W 009°51'1212.2
2015-Jan-11 03:33N 37°47' W 009°55'1212.3
2015-Jan-11 02:33N 37°59' W 009°59'1212.3
2015-Jan-11 01:33N 38°11' W 010°02'1212.1
2015-Jan-11 00:33N 38°23' W 010°05'1212.3
2015-Jan-10 23:33N 38°34' W 010°09'1212.3
2015-Jan-10 22:33N 38°47' W 010°11'1212.4
2015-Jan-10 21:33N 38°59' W 010°11'1212.1
2015-Jan-10 20:33N 39°11' W 010°11'  
2015-Jan-07 12:07N 50°22' W 000°49'17 8.5
2015-Jan-07 10:09N 50°26' W 000°24'16 8.6
2015-Jan-07 08:18N 50°30' E 000°00'810.3
2015-Jan-07 07:33N 50°32' E 000°12'1211.7
2015-Jan-07 06:33N 50°36' E 000°30'1212.3
2015-Jan-07 05:34N 50°42' E 000°46'1212.2
2015-Jan-07 04:33N 50°50' E 001°01'1111.3
2015-Jan-07 03:33N 50°57' E 001°15'10 9.9
2015-Jan-07 02:34N 51°04' E 001°26'9 8.9
2015-Jan-07 01:34N 51°09' E 001°37'9 9.1
2015-Jan-07 00:33N 51°16' E 001°48'1110.7
2015-Jan-06 23:34N 51°25' E 001°56'1212.1
2015-Jan-06 22:34N 51°34' E 002°10'1413.1
2015-Jan-06 21:30N 51°44' E 002°25'5511.2
2015-Jan-06 16:33N 52°35' E 002°59'5310.0
2015-Jan-06 11:15N 53°25' E 003°31'2810.3
2015-Jan-06 08:33N 53°49' E 003°53'  

Dump ship's entire track history